Lady Debora — V2QG7 — position and weather

sailwx.info

Track history (hours):
 
Tides and Currents Weather Stations Pressure Air Temp Water Temp Dewpoint Dewpoint Depression Visibility Wind Speed Wind Dir Waves Ship Positions

Lady Debora

Last reported at 2016-Sep-24 03:32 UTC. Time now 2016-Sep-26 12:15 UTC.
Position N 37°28' E 024°21'.

Length 107 m; draft 3.9 m.

Type: Cargo ship. MMSI: 304010760.

Date/timePositionNaut miles runAvg speedWind from/ knotsBaromVisibWave heightAir tempDewpointWater temp
2016-Sep-24 03:32N 37°28' E 024°21'1010.2
2016-Sep-24 02:32N 37°20' E 024°14'1010.3
2016-Sep-24 01:33N 37°11' E 024°07'  
2016-Sep-18 01:07N 32°23' E 015°19'0 0.0
2016-Sep-17 22:19N 32°23' E 015°19'0 0.0
2016-Sep-16 17:07N 32°23' E 015°19'0 0.0
2016-Sep-16 12:31N 32°23' E 015°19'0 0.0
2016-Sep-16 03:31N 32°23' E 015°19'0 0.0
2016-Sep-16 00:19N 32°23' E 015°19'11 6.0
2016-Sep-15 22:33N 32°33' E 015°20'11 9.8
2016-Sep-15 21:25N 32°44' E 015°21'10810.4
2016-Sep-15 11:07N 34°32' E 015°25'18610.4
2016-Sep-14 17:10N 37°38' E 015°32'710.4
2016-Sep-14 16:32N 37°44' E 015°32'29 9.6
2016-Sep-14 13:33N 38°13' E 015°36'7 7.0
2016-Sep-14 12:33N 38°19' E 015°40'2010.0
2016-Sep-14 10:33N 38°37' E 015°28'1010.1
2016-Sep-14 09:33N 38°46' E 015°22'1110.0
2016-Sep-14 08:30N 38°54' E 015°13'  
Track history (hours):
 
Tides and Currents Weather Stations Pressure Air Temp Water Temp Dewpoint Dewpoint Depression Visibility Wind Speed Wind Dir Waves Ship Positions

Lady Debora

Last reported at 2016-Sep-24 03:32 UTC. Time now 2016-Sep-26 12:15 UTC.
Position N 37°28' E 024°21'.

Length 107 m; draft 3.9 m.

Type: Cargo ship. MMSI: 304010760.

Date/timePositionNaut miles runAvg speedWind from/ knotsBaromVisibWave heightAir tempDewpointWater temp
2016-Sep-24 03:32N 37°28' E 024°21'1010.2
2016-Sep-24 02:32N 37°20' E 024°14'1010.3
2016-Sep-24 01:33N 37°11' E 024°07'  
2016-Sep-18 01:07N 32°23' E 015°19'0 0.0
2016-Sep-17 22:19N 32°23' E 015°19'0 0.0
2016-Sep-16 17:07N 32°23' E 015°19'0 0.0
2016-Sep-16 12:31N 32°23' E 015°19'0 0.0
2016-Sep-16 03:31N 32°23' E 015°19'0 0.0
2016-Sep-16 00:19N 32°23' E 015°19'11 6.0
2016-Sep-15 22:33N 32°33' E 015°20'11 9.8
2016-Sep-15 21:25N 32°44' E 015°21'10810.4
2016-Sep-15 11:07N 34°32' E 015°25'18610.4
2016-Sep-14 17:10N 37°38' E 015°32'710.4
2016-Sep-14 16:32N 37°44' E 015°32'29 9.6
2016-Sep-14 13:33N 38°13' E 015°36'7 7.0
2016-Sep-14 12:33N 38°19' E 015°40'2010.0
2016-Sep-14 10:33N 38°37' E 015°28'1010.1
2016-Sep-14 09:33N 38°46' E 015°22'1110.0
2016-Sep-14 08:30N 38°54' E 015°13'  

Dump ship's entire track history